<?xml version="1.0" encoding="UTF-8"?>
<gpx version="1.1" creator="https://www.youtrack.es" xsi:schemaLocation="http://www.topografix.com/GPX/1/1 http://www.topografix.com/GPX/1/1/gpx.xsd http://www.garmin.com/xmlschemas/GpxExtensions/v3 http://www.garmin.com/xmlschemas/GpxExtensionsv3.xsd http://www.garmin.com/xmlschemas/TrackPointExtension/v1 http://www.garmin.com/xmlschemas/TrackPointExtensionv1.xsd" xmlns:gpxtpx="http://www.garmin.com/xmlschemas/TrackPointExtension/v1" xmlns:gpxx="http://www.garmin.com/xmlschemas/GpxExtensions/v3" xmlns:xsi="http://www.w3.org/2001/XMLSchema-instance">
  <metadata>
    <link href="https://www.youtrack.es">
      <text>YouTrack.es</text>
    </link>
    <time>2026-05-08T17:10:07Z</time>
  </metadata>
  <trk>
    <src>https://www.youtrack.es</src>
    <link href="https://www.youtrack.es/ruta/40014-rutas-21km">
      <text>YouTrack.es</text>
    </link>
    <trkseg>
      <trkpt lat="15.847578219360217" lon="-87.95737980403355">
        <ele>-49.8</ele>
        <time>2023-01-29T12:13:47.000Z</time>
      </trkpt>
      <trkpt lat="15.847926149736498" lon="-87.95731165087774">
        <ele>-50.0</ele>
        <time>2023-01-29T12:14:04.000Z</time>
      </trkpt>
      <trkpt lat="15.848014247520963" lon="-87.95722178738016">
        <ele>-49.9</ele>
        <time>2023-01-29T12:14:14.000Z</time>
      </trkpt>
      <trkpt lat="15.848121831591898" lon="-87.95681921781805">
        <ele>-50.0</ele>
        <time>2023-01-29T12:14:35.000Z</time>
      </trkpt>
      <trkpt lat="15.84808526822669" lon="-87.95659371866851">
        <ele>-49.8</ele>
        <time>2023-01-29T12:14:50.000Z</time>
      </trkpt>
      <trkpt lat="15.848096765038628" lon="-87.95609348104637">
        <ele>-50.2</ele>
        <time>2023-01-29T12:15:16.000Z</time>
      </trkpt>
      <trkpt lat="15.847979689335228" lon="-87.95576223964034">
        <ele>-50.0</ele>
        <time>2023-01-29T12:15:33.000Z</time>
      </trkpt>
      <trkpt lat="15.847961643781378" lon="-87.95555825291562">
        <ele>-50.2</ele>
        <time>2023-01-29T12:15:43.000Z</time>
      </trkpt>
      <trkpt lat="15.847831068413177" lon="-87.95505648371369">
        <ele>-50.2</ele>
        <time>2023-01-29T12:16:06.000Z</time>
      </trkpt>
      <trkpt lat="15.847763825434525" lon="-87.95461962326485">
        <ele>-50.3</ele>
        <time>2023-01-29T12:16:26.000Z</time>
      </trkpt>
      <trkpt lat="15.847654972363527" lon="-87.95434702121955">
        <ele>-50.1</ele>
        <time>2023-01-29T12:16:40.000Z</time>
      </trkpt>
      <trkpt lat="15.847562874427" lon="-87.95366756470953">
        <ele>-50.1</ele>
        <time>2023-01-29T12:17:10.000Z</time>
      </trkpt>
      <trkpt lat="15.847571498221235" lon="-87.95323148978379">
        <ele>-50.0</ele>
        <time>2023-01-29T12:17:32.000Z</time>
      </trkpt>
      <trkpt lat="15.847513390968725" lon="-87.95295800613448">
        <ele>-49.9</ele>
        <time>2023-01-29T12:17:44.000Z</time>
      </trkpt>
      <trkpt lat="15.847507810251527" lon="-87.95276973310774">
        <ele>-49.9</ele>
        <time>2023-01-29T12:17:52.000Z</time>
      </trkpt>
      <trkpt lat="15.847257549716629" lon="-87.952313510658">
        <ele>-50.2</ele>
        <time>2023-01-29T12:18:16.000Z</time>
      </trkpt>
      <trkpt lat="15.847155044554603" lon="-87.95191323258106">
        <ele>-50.0</ele>
        <time>2023-01-29T12:18:34.000Z</time>
      </trkpt>
      <trkpt lat="15.847120390522337" lon="-87.95150680967782">
        <ele>-50.3</ele>
        <time>2023-01-29T12:18:50.000Z</time>
      </trkpt>
      <trkpt lat="15.847024164778581" lon="-87.9512104060334">
        <ele>-49.8</ele>
        <time>2023-01-29T12:19:04.000Z</time>
      </trkpt>
      <trkpt lat="15.847022853837485" lon="-87.9507542646518">
        <ele>-50.0</ele>
        <time>2023-01-29T12:19:24.000Z</time>
      </trkpt>
      <trkpt lat="15.846978884975579" lon="-87.9505428101512">
        <ele>-49.9</ele>
        <time>2023-01-29T12:19:36.000Z</time>
      </trkpt>
      <trkpt lat="15.847034152273814" lon="-87.95023127397891">
        <ele>-49.9</ele>
        <time>2023-01-29T12:19:50.000Z</time>
      </trkpt>
      <trkpt lat="15.847008006524238" lon="-87.949643905612">
        <ele>-49.8</ele>
        <time>2023-01-29T12:20:14.000Z</time>
      </trkpt>
      <trkpt lat="15.846917647394783" lon="-87.949355457214">
        <ele>-49.9</ele>
        <time>2023-01-29T12:20:27.000Z</time>
      </trkpt>
      <trkpt lat="15.846873282958187" lon="-87.94908268003856">
        <ele>-50.0</ele>
        <time>2023-01-29T12:20:38.000Z</time>
      </trkpt>
      <trkpt lat="15.846716770650694" lon="-87.948887499026">
        <ele>-49.9</ele>
        <time>2023-01-29T12:20:50.000Z</time>
      </trkpt>
      <trkpt lat="15.846677133495355" lon="-87.94871138188414">
        <ele>-49.8</ele>
        <time>2023-01-29T12:21:00.000Z</time>
      </trkpt>
      <trkpt lat="15.846553774045741" lon="-87.94844774476253">
        <ele>-49.8</ele>
        <time>2023-01-29T12:21:14.000Z</time>
      </trkpt>
      <trkpt lat="15.84654205662245" lon="-87.94814570563422">
        <ele>-49.6</ele>
        <time>2023-01-29T12:21:26.000Z</time>
      </trkpt>
      <trkpt lat="15.846484184181087" lon="-87.94784093803736">
        <ele>-49.6</ele>
        <time>2023-01-29T12:21:41.000Z</time>
      </trkpt>
      <trkpt lat="15.846519001221544" lon="-87.94727352518801">
        <ele>-49.8</ele>
        <time>2023-01-29T12:22:09.000Z</time>
      </trkpt>
      <trkpt lat="15.846466792708048" lon="-87.94708120868948">
        <ele>-49.9</ele>
        <time>2023-01-29T12:22:21.000Z</time>
      </trkpt>
      <trkpt lat="15.846438559173084" lon="-87.94673377979451">
        <ele>-49.9</ele>
        <time>2023-01-29T12:22:39.000Z</time>
      </trkpt>
      <trkpt lat="15.846347775647132" lon="-87.94650306553424">
        <ele>-49.9</ele>
        <time>2023-01-29T12:22:52.000Z</time>
      </trkpt>
      <trkpt lat="15.846282851336504" lon="-87.94579909548982">
        <ele>-49.7</ele>
        <time>2023-01-29T12:23:19.000Z</time>
      </trkpt>
      <trkpt lat="15.84629955044489" lon="-87.94544416721487">
        <ele>-49.9</ele>
        <time>2023-01-29T12:23:32.000Z</time>
      </trkpt>
      <trkpt lat="15.846199862037537" lon="-87.94522491867247">
        <ele>-49.6</ele>
        <time>2023-01-29T12:23:47.000Z</time>
      </trkpt>
      <trkpt lat="15.845960504154192" lon="-87.94432947594314">
        <ele>-49.7</ele>
        <time>2023-01-29T12:24:32.000Z</time>
      </trkpt>
      <trkpt lat="15.845786792184992" lon="-87.94305677400826">
        <ele>-49.6</ele>
        <time>2023-01-29T12:25:30.000Z</time>
      </trkpt>
      <trkpt lat="15.845658833813895" lon="-87.94249775901928">
        <ele>-49.6</ele>
        <time>2023-01-29T12:25:57.000Z</time>
      </trkpt>
      <trkpt lat="15.845628028613929" lon="-87.94221796524936">
        <ele>-49.9</ele>
        <time>2023-01-29T12:26:12.000Z</time>
      </trkpt>
      <trkpt lat="15.845376968726642" lon="-87.94095964158696">
        <ele>-50.3</ele>
        <time>2023-01-29T12:27:11.000Z</time>
      </trkpt>
      <trkpt lat="15.84523523802427" lon="-87.93969054465148">
        <ele>-50.9</ele>
        <time>2023-01-29T12:28:12.000Z</time>
      </trkpt>
      <trkpt lat="15.8451329486819" lon="-87.93939480549723">
        <ele>-50.8</ele>
        <time>2023-01-29T12:28:27.000Z</time>
      </trkpt>
      <trkpt lat="15.845078004524101" lon="-87.93913339392094">
        <ele>-51.0</ele>
        <time>2023-01-29T12:28:41.000Z</time>
      </trkpt>
      <trkpt lat="15.845056010282526" lon="-87.93883464892684">
        <ele>-50.9</ele>
        <time>2023-01-29T12:28:57.000Z</time>
      </trkpt>
      <trkpt lat="15.844884492269443" lon="-87.93799567078403">
        <ele>-50.8</ele>
        <time>2023-01-29T12:29:40.000Z</time>
      </trkpt>
      <trkpt lat="15.844803133214283" lon="-87.93728527419341">
        <ele>-50.8</ele>
        <time>2023-01-29T12:30:16.000Z</time>
      </trkpt>
      <trkpt lat="15.844718289147728" lon="-87.93705547301187">
        <ele>-50.6</ele>
        <time>2023-01-29T12:30:27.000Z</time>
      </trkpt>
      <trkpt lat="15.84467689196328" lon="-87.93681225550537">
        <ele>-50.8</ele>
        <time>2023-01-29T12:30:40.000Z</time>
      </trkpt>
      <trkpt lat="15.84457425929898" lon="-87.93648830999349">
        <ele>-50.9</ele>
        <time>2023-01-29T12:30:55.000Z</time>
      </trkpt>
      <trkpt lat="15.844514041907592" lon="-87.93572097224293">
        <ele>-50.9</ele>
        <time>2023-01-29T12:31:34.000Z</time>
      </trkpt>
      <trkpt lat="15.844372329058558" lon="-87.93504026981374">
        <ele>-51.0</ele>
        <time>2023-01-29T12:32:13.000Z</time>
      </trkpt>
      <trkpt lat="15.844337435220103" lon="-87.9347033550428">
        <ele>-51.0</ele>
        <time>2023-01-29T12:32:30.000Z</time>
      </trkpt>
      <trkpt lat="15.844244553864696" lon="-87.93437404474035">
        <ele>-51.3</ele>
        <time>2023-01-29T12:32:47.000Z</time>
      </trkpt>
      <trkpt lat="15.844086605807707" lon="-87.93343004121374">
        <ele>-51.4</ele>
        <time>2023-01-29T12:33:33.000Z</time>
      </trkpt>
      <trkpt lat="15.844003450637045" lon="-87.93317780701582">
        <ele>-51.5</ele>
        <time>2023-01-29T12:33:45.000Z</time>
      </trkpt>
      <trkpt lat="15.843897636418289" lon="-87.93247691766744">
        <ele>-51.4</ele>
        <time>2023-01-29T12:34:21.000Z</time>
      </trkpt>
      <trkpt lat="15.843838857801751" lon="-87.93237233137735">
        <ele>-51.6</ele>
        <time>2023-01-29T12:34:27.000Z</time>
      </trkpt>
      <trkpt lat="15.843709853267388" lon="-87.9322930570091">
        <ele>-51.6</ele>
        <time>2023-01-29T12:34:33.000Z</time>
      </trkpt>
      <trkpt lat="15.843552517303499" lon="-87.93227262678161">
        <ele>-51.5</ele>
        <time>2023-01-29T12:34:39.000Z</time>
      </trkpt>
      <trkpt lat="15.843297087954939" lon="-87.93232533644962">
        <ele>-51.6</ele>
        <time>2023-01-29T12:34:51.000Z</time>
      </trkpt>
      <trkpt lat="15.84304112340464" lon="-87.93233339233245">
        <ele>-51.8</ele>
        <time>2023-01-29T12:35:04.000Z</time>
      </trkpt>
      <trkpt lat="15.842679104350085" lon="-87.93243570829824">
        <ele>-51.9</ele>
        <time>2023-01-29T12:35:22.000Z</time>
      </trkpt>
      <trkpt lat="15.842097720486304" lon="-87.93254573930832">
        <ele>-52.2</ele>
        <time>2023-01-29T12:35:56.000Z</time>
      </trkpt>
      <trkpt lat="15.842018336030236" lon="-87.93250518821718">
        <ele>-52.2</ele>
        <time>2023-01-29T12:36:02.000Z</time>
      </trkpt>
      <trkpt lat="15.84194991835425" lon="-87.9323951586566">
        <ele>-52.2</ele>
        <time>2023-01-29T12:36:09.000Z</time>
      </trkpt>
      <trkpt lat="15.841778485524241" lon="-87.9318709386043">
        <ele>-51.7</ele>
        <time>2023-01-29T12:36:34.000Z</time>
      </trkpt>
      <trkpt lat="15.841679747203303" lon="-87.93176610942014">
        <ele>-51.7</ele>
        <time>2023-01-29T12:36:40.000Z</time>
      </trkpt>
      <trkpt lat="15.841565472195594" lon="-87.9317183390122">
        <ele>-51.4</ele>
        <time>2023-01-29T12:36:45.000Z</time>
      </trkpt>
      <trkpt lat="15.84119244027096" lon="-87.93165547728356">
        <ele>-51.4</ele>
        <time>2023-01-29T12:37:05.000Z</time>
      </trkpt>
      <trkpt lat="15.840247716828122" lon="-87.93170903242168">
        <ele>-51.5</ele>
        <time>2023-01-29T12:37:52.000Z</time>
      </trkpt>
      <trkpt lat="15.83997929052348" lon="-87.93167813580003">
        <ele>-51.4</ele>
        <time>2023-01-29T12:38:08.000Z</time>
      </trkpt>
      <trkpt lat="15.839632656240473" lon="-87.93170089060442">
        <ele>-51.6</ele>
        <time>2023-01-29T12:38:26.000Z</time>
      </trkpt>
      <trkpt lat="15.839132264131168" lon="-87.9316000050838">
        <ele>-51.7</ele>
        <time>2023-01-29T12:38:49.000Z</time>
      </trkpt>
      <trkpt lat="15.838853482591757" lon="-87.931620194902">
        <ele>-51.9</ele>
        <time>2023-01-29T12:39:07.000Z</time>
      </trkpt>
      <trkpt lat="15.838311569793746" lon="-87.9315662740768">
        <ele>-51.8</ele>
        <time>2023-01-29T12:39:33.000Z</time>
      </trkpt>
      <trkpt lat="15.83753246840498" lon="-87.93138814306772">
        <ele>-51.4</ele>
        <time>2023-01-29T12:40:12.000Z</time>
      </trkpt>
      <trkpt lat="15.83709789485435" lon="-87.93135639683454">
        <ele>-51.2</ele>
        <time>2023-01-29T12:40:36.000Z</time>
      </trkpt>
      <trkpt lat="15.836857822688081" lon="-87.93129888871464">
        <ele>-51.3</ele>
        <time>2023-01-29T12:40:50.000Z</time>
      </trkpt>
      <trkpt lat="15.836141235322179" lon="-87.93103748479994">
        <ele>-51.4</ele>
        <time>2023-01-29T12:41:27.000Z</time>
      </trkpt>
      <trkpt lat="15.83532666903714" lon="-87.93081406471248">
        <ele>-51.9</ele>
        <time>2023-01-29T12:42:13.000Z</time>
      </trkpt>
      <trkpt lat="15.834924283884426" lon="-87.93062733136072">
        <ele>-52.0</ele>
        <time>2023-01-29T12:42:36.000Z</time>
      </trkpt>
      <trkpt lat="15.834592331120772" lon="-87.93051973550345">
        <ele>-51.9</ele>
        <time>2023-01-29T12:42:55.000Z</time>
      </trkpt>
      <trkpt lat="15.834160126461574" lon="-87.9303020338836">
        <ele>-51.8</ele>
        <time>2023-01-29T12:43:21.000Z</time>
      </trkpt>
      <trkpt lat="15.83285884803798" lon="-87.9293184086424">
        <ele>-52.0</ele>
        <time>2023-01-29T12:44:31.000Z</time>
      </trkpt>
      <trkpt lat="15.832649183162617" lon="-87.92912311041779">
        <ele>-51.9</ele>
        <time>2023-01-29T12:44:43.000Z</time>
      </trkpt>
      <trkpt lat="15.831921111282298" lon="-87.92871415304825">
        <ele>-51.9</ele>
        <time>2023-01-29T12:45:29.000Z</time>
      </trkpt>
      <trkpt lat="15.831450933208368" lon="-87.9283681130717">
        <ele>-51.2</ele>
        <time>2023-01-29T12:45:56.000Z</time>
      </trkpt>
      <trkpt lat="15.830956092316836" lon="-87.92814656461213">
        <ele>-51.0</ele>
        <time>2023-01-29T12:46:24.000Z</time>
      </trkpt>
      <trkpt lat="15.830576124855988" lon="-87.92819307810913">
        <ele>-50.4</ele>
        <time>2023-01-29T12:46:44.000Z</time>
      </trkpt>
      <trkpt lat="15.828267105954508" lon="-87.93005217191623">
        <ele>-49.0</ele>
        <time>2023-01-29T12:49:06.000Z</time>
      </trkpt>
      <trkpt lat="15.82762225833005" lon="-87.9304715803857">
        <ele>-48.5</ele>
        <time>2023-01-29T12:49:47.000Z</time>
      </trkpt>
      <trkpt lat="15.827284511622906" lon="-87.93061874846643">
        <ele>-51.8</ele>
        <time>2023-01-29T12:50:05.000Z</time>
      </trkpt>
      <trkpt lat="15.826660904390911" lon="-87.93110777789042">
        <ele>-53.4</ele>
        <time>2023-01-29T12:50:41.000Z</time>
      </trkpt>
      <trkpt lat="15.826585866089664" lon="-87.9312481282196">
        <ele>-53.3</ele>
        <time>2023-01-29T12:50:51.000Z</time>
      </trkpt>
      <trkpt lat="15.826543607164188" lon="-87.9316750587176">
        <ele>-53.1</ele>
        <time>2023-01-29T12:51:13.000Z</time>
      </trkpt>
      <trkpt lat="15.826444829849766" lon="-87.93185153845862">
        <ele>-53.2</ele>
        <time>2023-01-29T12:51:22.000Z</time>
      </trkpt>
      <trkpt lat="15.82632569619435" lon="-87.93196170484697">
        <ele>-53.3</ele>
        <time>2023-01-29T12:51:30.000Z</time>
      </trkpt>
      <trkpt lat="15.82516257379043" lon="-87.9323547439983">
        <ele>-53.4</ele>
        <time>2023-01-29T12:52:26.000Z</time>
      </trkpt>
      <trkpt lat="15.824105528848618" lon="-87.93276549490128">
        <ele>-53.4</ele>
        <time>2023-01-29T12:53:23.000Z</time>
      </trkpt>
      <trkpt lat="15.822864801744812" lon="-87.93330433426216">
        <ele>-53.1</ele>
        <time>2023-01-29T12:54:25.000Z</time>
      </trkpt>
      <trkpt lat="15.822457570543815" lon="-87.9334395121932">
        <ele>-52.7</ele>
        <time>2023-01-29T12:54:52.000Z</time>
      </trkpt>
      <trkpt lat="15.821548547601532" lon="-87.93388346586197">
        <ele>-53.2</ele>
        <time>2023-01-29T12:55:41.000Z</time>
      </trkpt>
      <trkpt lat="15.82010521862818" lon="-87.93468780777465">
        <ele>-53.5</ele>
        <time>2023-01-29T12:56:59.000Z</time>
      </trkpt>
      <trkpt lat="15.81956893682771" lon="-87.93494962859592">
        <ele>-53.6</ele>
        <time>2023-01-29T12:57:34.000Z</time>
      </trkpt>
      <trkpt lat="15.817958985863953" lon="-87.93605139326401">
        <ele>-53.8</ele>
        <time>2023-01-29T12:59:14.000Z</time>
      </trkpt>
      <trkpt lat="15.817234364346602" lon="-87.93660449139172">
        <ele>-53.9</ele>
        <time>2023-01-29T13:00:02.000Z</time>
      </trkpt>
      <trkpt lat="15.81666701873421" lon="-87.93695181781283">
        <ele>-53.9</ele>
        <time>2023-01-29T13:00:36.000Z</time>
      </trkpt>
      <trkpt lat="15.816404913905584" lon="-87.93720410381876">
        <ele>-53.8</ele>
        <time>2023-01-29T13:00:57.000Z</time>
      </trkpt>
      <trkpt lat="15.81584476082286" lon="-87.93762179350917">
        <ele>-53.9</ele>
        <time>2023-01-29T13:01:47.000Z</time>
      </trkpt>
      <trkpt lat="15.815353028404132" lon="-87.93813564550092">
        <ele>-53.2</ele>
        <time>2023-01-29T13:03:20.000Z</time>
      </trkpt>
      <trkpt lat="15.814599738858334" lon="-87.93875069873103">
        <ele>-52.9</ele>
        <time>2023-01-29T13:04:06.000Z</time>
      </trkpt>
      <trkpt lat="15.8140372725607" lon="-87.93925974270611">
        <ele>-52.9</ele>
        <time>2023-01-29T13:04:41.000Z</time>
      </trkpt>
      <trkpt lat="15.813730360286188" lon="-87.93964866587673">
        <ele>-52.7</ele>
        <time>2023-01-29T13:05:05.000Z</time>
      </trkpt>
      <trkpt lat="15.813222615141473" lon="-87.94019043457514">
        <ele>-52.8</ele>
        <time>2023-01-29T13:05:48.000Z</time>
      </trkpt>
      <trkpt lat="15.812446979093068" lon="-87.94119269437063">
        <ele>-52.8</ele>
        <time>2023-01-29T13:06:53.000Z</time>
      </trkpt>
      <trkpt lat="15.81186770466215" lon="-87.94203637870064">
        <ele>-53.3</ele>
        <time>2023-01-29T13:07:49.000Z</time>
      </trkpt>
      <trkpt lat="15.811707816442844" lon="-87.94219450050434">
        <ele>-53.5</ele>
        <time>2023-01-29T13:08:01.000Z</time>
      </trkpt>
      <trkpt lat="15.811399376101894" lon="-87.94280534820163">
        <ele>-53.5</ele>
        <time>2023-01-29T13:08:35.000Z</time>
      </trkpt>
      <trkpt lat="15.81106604785933" lon="-87.9433575103804">
        <ele>-53.5</ele>
        <time>2023-01-29T13:09:14.000Z</time>
      </trkpt>
      <trkpt lat="15.810758623241325" lon="-87.9437977123333">
        <ele>-53.4</ele>
        <time>2023-01-29T13:09:42.000Z</time>
      </trkpt>
      <trkpt lat="15.810543898532048" lon="-87.9440283535417">
        <ele>-53.7</ele>
        <time>2023-01-29T13:09:55.000Z</time>
      </trkpt>
      <trkpt lat="15.810473719625518" lon="-87.94403504675981">
        <ele>-53.7</ele>
        <time>2023-01-29T13:10:00.000Z</time>
      </trkpt>
      <trkpt lat="15.810395873893116" lon="-87.9439602784065">
        <ele>-53.8</ele>
        <time>2023-01-29T13:10:09.000Z</time>
      </trkpt>
      <trkpt lat="15.810412093389134" lon="-87.94399241032582">
        <ele>-53.4</ele>
        <time>2023-01-29T13:10:14.000Z</time>
      </trkpt>
      <trkpt lat="15.810497370492504" lon="-87.94404390424022">
        <ele>-53.4</ele>
        <time>2023-01-29T13:10:20.000Z</time>
      </trkpt>
      <trkpt lat="15.810591710019906" lon="-87.9440195523807">
        <ele>-53.6</ele>
        <time>2023-01-29T13:10:25.000Z</time>
      </trkpt>
      <trkpt lat="15.81095528664747" lon="-87.94363476796718">
        <ele>-53.4</ele>
        <time>2023-01-29T13:10:53.000Z</time>
      </trkpt>
      <trkpt lat="15.811124503024168" lon="-87.9433137171195">
        <ele>-53.6</ele>
        <time>2023-01-29T13:11:13.000Z</time>
      </trkpt>
      <trkpt lat="15.81145585460094" lon="-87.94286582072476">
        <ele>-53.5</ele>
        <time>2023-01-29T13:11:40.000Z</time>
      </trkpt>
      <trkpt lat="15.811580071203743" lon="-87.94260635967937">
        <ele>-53.7</ele>
        <time>2023-01-29T13:11:56.000Z</time>
      </trkpt>
      <trkpt lat="15.811703300569256" lon="-87.94244770253006">
        <ele>-53.7</ele>
        <time>2023-01-29T13:12:09.000Z</time>
      </trkpt>
      <trkpt lat="15.81195190847364" lon="-87.94198445918083">
        <ele>-53.6</ele>
        <time>2023-01-29T13:12:41.000Z</time>
      </trkpt>
      <trkpt lat="15.812524146786494" lon="-87.94118078941052">
        <ele>-53.4</ele>
        <time>2023-01-29T13:13:31.000Z</time>
      </trkpt>
      <trkpt lat="15.813072843879024" lon="-87.94054965460961">
        <ele>-53.4</ele>
        <time>2023-01-29T13:14:18.000Z</time>
      </trkpt>
      <trkpt lat="15.81350055893109" lon="-87.93994147264969">
        <ele>-53.4</ele>
        <time>2023-01-29T13:15:02.000Z</time>
      </trkpt>
      <trkpt lat="15.813718785185392" lon="-87.93969025644712">
        <ele>-53.5</ele>
        <time>2023-01-29T13:15:21.000Z</time>
      </trkpt>
      <trkpt lat="15.814312434665812" lon="-87.93908062048763">
        <ele>-53.7</ele>
        <time>2023-01-29T13:16:08.000Z</time>
      </trkpt>
      <trkpt lat="15.814680827673245" lon="-87.9388236351287">
        <ele>-53.6</ele>
        <time>2023-01-29T13:16:30.000Z</time>
      </trkpt>
      <trkpt lat="15.815108064697199" lon="-87.93837663129244">
        <ele>-53.9</ele>
        <time>2023-01-29T13:17:08.000Z</time>
      </trkpt>
      <trkpt lat="15.815820549903895" lon="-87.93780205450344">
        <ele>-54.1</ele>
        <time>2023-01-29T13:17:58.000Z</time>
      </trkpt>
      <trkpt lat="15.816024420456039" lon="-87.93756197646698">
        <ele>-54.0</ele>
        <time>2023-01-29T13:18:16.000Z</time>
      </trkpt>
      <trkpt lat="15.816532507876877" lon="-87.9371149066902">
        <ele>-54.3</ele>
        <time>2023-01-29T13:18:56.000Z</time>
      </trkpt>
      <trkpt lat="15.816760830505006" lon="-87.93699058151938">
        <ele>-54.5</ele>
        <time>2023-01-29T13:19:09.000Z</time>
      </trkpt>
      <trkpt lat="15.817375416373148" lon="-87.9365097606057">
        <ele>-54.6</ele>
        <time>2023-01-29T13:19:46.000Z</time>
      </trkpt>
      <trkpt lat="15.817907734135003" lon="-87.93620939597857">
        <ele>-54.4</ele>
        <time>2023-01-29T13:20:19.000Z</time>
      </trkpt>
      <trkpt lat="15.818404090891947" lon="-87.9358795645685">
        <ele>-54.4</ele>
        <time>2023-01-29T13:20:49.000Z</time>
      </trkpt>
      <trkpt lat="15.818556873532577" lon="-87.93575783768546">
        <ele>-54.4</ele>
        <time>2023-01-29T13:20:59.000Z</time>
      </trkpt>
      <trkpt lat="15.818668185682997" lon="-87.9355990397059">
        <ele>-54.4</ele>
        <time>2023-01-29T13:21:11.000Z</time>
      </trkpt>
      <trkpt lat="15.818754107896938" lon="-87.93553123485066">
        <ele>-54.2</ele>
        <time>2023-01-29T13:21:18.000Z</time>
      </trkpt>
      <trkpt lat="15.819951399995961" lon="-87.93488247785174">
        <ele>-54.4</ele>
        <time>2023-01-29T13:22:23.000Z</time>
      </trkpt>
      <trkpt lat="15.820324714137781" lon="-87.93460735525389">
        <ele>-54.4</ele>
        <time>2023-01-29T13:22:48.000Z</time>
      </trkpt>
      <trkpt lat="15.821125613580614" lon="-87.93428655667222">
        <ele>-54.6</ele>
        <time>2023-01-29T13:23:25.000Z</time>
      </trkpt>
      <trkpt lat="15.821434156459993" lon="-87.93405664231445">
        <ele>-54.6</ele>
        <time>2023-01-29T13:23:48.000Z</time>
      </trkpt>
      <trkpt lat="15.821956588452663" lon="-87.9337891834232">
        <ele>-54.4</ele>
        <time>2023-01-29T13:24:16.000Z</time>
      </trkpt>
      <trkpt lat="15.822201429676255" lon="-87.93359122650385">
        <ele>-54.5</ele>
        <time>2023-01-29T13:24:40.000Z</time>
      </trkpt>
      <trkpt lat="15.823049343008456" lon="-87.93323774534409">
        <ele>-54.6</ele>
        <time>2023-01-29T13:25:29.000Z</time>
      </trkpt>
      <trkpt lat="15.823225175229602" lon="-87.93318976858176">
        <ele>-54.7</ele>
        <time>2023-01-29T13:25:39.000Z</time>
      </trkpt>
      <trkpt lat="15.823399329983982" lon="-87.93322006446172">
        <ele>-54.7</ele>
        <time>2023-01-29T13:25:53.000Z</time>
      </trkpt>
      <trkpt lat="15.823421899690674" lon="-87.93348962071985">
        <ele>-54.7</ele>
        <time>2023-01-29T13:26:09.000Z</time>
      </trkpt>
      <trkpt lat="15.82345721473842" lon="-87.93353545725915">
        <ele>-54.7</ele>
        <time>2023-01-29T13:26:13.000Z</time>
      </trkpt>
      <trkpt lat="15.823536295015442" lon="-87.93355359361827">
        <ele>-55.0</ele>
        <time>2023-01-29T13:26:18.000Z</time>
      </trkpt>
      <trkpt lat="15.823687175491234" lon="-87.93352300638843">
        <ele>-55.1</ele>
        <time>2023-01-29T13:26:26.000Z</time>
      </trkpt>
      <trkpt lat="15.823954240211181" lon="-87.9333763057157">
        <ele>-54.9</ele>
        <time>2023-01-29T13:26:44.000Z</time>
      </trkpt>
      <trkpt lat="15.824359469149131" lon="-87.93329780668064">
        <ele>-55.1</ele>
        <time>2023-01-29T13:27:03.000Z</time>
      </trkpt>
      <trkpt lat="15.824549040323033" lon="-87.93323000938216">
        <ele>-55.1</ele>
        <time>2023-01-29T13:27:14.000Z</time>
      </trkpt>
      <trkpt lat="15.82483895462628" lon="-87.93319015278668">
        <ele>-52.9</ele>
        <time>2023-01-29T13:27:50.000Z</time>
      </trkpt>
      <trkpt lat="15.824842696606218" lon="-87.93315780534635">
        <ele>-52.7</ele>
        <time>2023-01-29T13:28:51.000Z</time>
      </trkpt>
      <trkpt lat="15.82481517636124" lon="-87.93318511861797">
        <ele>-52.9</ele>
        <time>2023-01-29T13:29:23.000Z</time>
      </trkpt>
      <trkpt lat="15.82485724942227" lon="-87.93316887805227">
        <ele>-52.9</ele>
        <time>2023-01-29T13:29:24.000Z</time>
      </trkpt>
      <trkpt lat="15.824836063500078" lon="-87.93315520331721">
        <ele>-53.2</ele>
        <time>2023-01-29T13:30:46.000Z</time>
      </trkpt>
      <trkpt lat="15.824869791777168" lon="-87.93318436646581">
        <ele>-53.2</ele>
        <time>2023-01-29T13:31:21.000Z</time>
      </trkpt>
      <trkpt lat="15.824837390404955" lon="-87.93315519964563">
        <ele>-53.5</ele>
        <time>2023-01-29T13:33:09.000Z</time>
      </trkpt>
      <trkpt lat="15.84249383398995" lon="-87.93624296716746">
        <ele>-36.6</ele>
        <time>2023-01-29T23:27:57.000Z</time>
      </trkpt>
      <trkpt lat="15.842630613812211" lon="-87.93689562152134">
        <ele>-36.6</ele>
        <time>2023-01-29T23:28:26.000Z</time>
      </trkpt>
      <trkpt lat="15.842646824796303" lon="-87.93751374547405">
        <ele>-36.6</ele>
        <time>2023-01-29T23:28:50.000Z</time>
      </trkpt>
      <trkpt lat="15.842735901969876" lon="-87.93789564869458">
        <ele>-36.7</ele>
        <time>2023-01-29T23:29:06.000Z</time>
      </trkpt>
      <trkpt lat="15.84276919149014" lon="-87.93826409170335">
        <ele>-36.8</ele>
        <time>2023-01-29T23:29:22.000Z</time>
      </trkpt>
      <trkpt lat="15.842745611812402" lon="-87.93856557334455">
        <ele>-36.6</ele>
        <time>2023-01-29T23:29:36.000Z</time>
      </trkpt>
      <trkpt lat="15.842956869628177" lon="-87.9391259565532">
        <ele>-36.7</ele>
        <time>2023-01-29T23:30:06.000Z</time>
      </trkpt>
      <trkpt lat="15.843074679609238" lon="-87.93972671733">
        <ele>-36.6</ele>
        <time>2023-01-29T23:30:28.000Z</time>
      </trkpt>
      <trkpt lat="15.84318024541573" lon="-87.94003410780937">
        <ele>-36.8</ele>
        <time>2023-01-29T23:30:41.000Z</time>
      </trkpt>
      <trkpt lat="15.843189927801275" lon="-87.94017390041566">
        <ele>-36.8</ele>
        <time>2023-01-29T23:30:47.000Z</time>
      </trkpt>
      <trkpt lat="15.8431544920443" lon="-87.94040371043751">
        <ele>-36.7</ele>
        <time>2023-01-29T23:30:57.000Z</time>
      </trkpt>
      <trkpt lat="15.843170463199643" lon="-87.94058393991035">
        <ele>-36.7</ele>
        <time>2023-01-29T23:31:05.000Z</time>
      </trkpt>
      <trkpt lat="15.843386135019783" lon="-87.94115561490052">
        <ele>-36.6</ele>
        <time>2023-01-29T23:31:31.000Z</time>
      </trkpt>
      <trkpt lat="15.843571624527225" lon="-87.94202711755624">
        <ele>-36.8</ele>
        <time>2023-01-29T23:32:08.000Z</time>
      </trkpt>
      <trkpt lat="15.843819241814133" lon="-87.94363230706523">
        <ele>-37.0</ele>
        <time>2023-01-29T23:33:13.000Z</time>
      </trkpt>
      <trkpt lat="15.843847940793342" lon="-87.94411584106871">
        <ele>-36.9</ele>
        <time>2023-01-29T23:33:35.000Z</time>
      </trkpt>
      <trkpt lat="15.844017089740698" lon="-87.94487981976255">
        <ele>-36.9</ele>
        <time>2023-01-29T23:34:05.000Z</time>
      </trkpt>
      <trkpt lat="15.84399739839296" lon="-87.94540122840225">
        <ele>-36.7</ele>
        <time>2023-01-29T23:34:24.000Z</time>
      </trkpt>
      <trkpt lat="15.844168178069678" lon="-87.94587890482916">
        <ele>-37.1</ele>
        <time>2023-01-29T23:34:43.000Z</time>
      </trkpt>
      <trkpt lat="15.844236759239413" lon="-87.9465077951893">
        <ele>-36.9</ele>
        <time>2023-01-29T23:35:12.000Z</time>
      </trkpt>
      <trkpt lat="15.844468550880661" lon="-87.94748701660374">
        <ele>-37.5</ele>
        <time>2023-01-29T23:35:53.000Z</time>
      </trkpt>
      <trkpt lat="15.844504380587596" lon="-87.94776164394001">
        <ele>-37.5</ele>
        <time>2023-01-29T23:36:04.000Z</time>
      </trkpt>
      <trkpt lat="15.844614590835977" lon="-87.94804227845776">
        <ele>-37.6</ele>
        <time>2023-01-29T23:36:16.000Z</time>
      </trkpt>
      <trkpt lat="15.844710059107676" lon="-87.94843703699961">
        <ele>-37.6</ele>
        <time>2023-01-29T23:36:37.000Z</time>
      </trkpt>
      <trkpt lat="15.844841757566316" lon="-87.94963466266488">
        <ele>-37.1</ele>
        <time>2023-01-29T23:37:26.000Z</time>
      </trkpt>
      <trkpt lat="15.844956886795234" lon="-87.95009878457466">
        <ele>-37.3</ele>
        <time>2023-01-29T23:37:48.000Z</time>
      </trkpt>
      <trkpt lat="15.845014177409517" lon="-87.95072169694961">
        <ele>-37.5</ele>
        <time>2023-01-29T23:38:14.000Z</time>
      </trkpt>
      <trkpt lat="15.84510361693022" lon="-87.95109783397426">
        <ele>-37.5</ele>
        <time>2023-01-29T23:38:30.000Z</time>
      </trkpt>
      <trkpt lat="15.845219443634516" lon="-87.95190340785982">
        <ele>-37.4</ele>
        <time>2023-01-29T23:39:10.000Z</time>
      </trkpt>
      <trkpt lat="15.84524745711527" lon="-87.95253090342575">
        <ele>-37.7</ele>
        <time>2023-01-29T23:39:36.000Z</time>
      </trkpt>
      <trkpt lat="15.845453529105987" lon="-87.9532828668766">
        <ele>-37.9</ele>
        <time>2023-01-29T23:40:11.000Z</time>
      </trkpt>
      <trkpt lat="15.845553665963285" lon="-87.95411331700775">
        <ele>-37.5</ele>
        <time>2023-01-29T23:40:49.000Z</time>
      </trkpt>
      <trkpt lat="15.845723757527043" lon="-87.95463589520594">
        <ele>-37.4</ele>
        <time>2023-01-29T23:41:13.000Z</time>
      </trkpt>
      <trkpt lat="15.845740375523512" lon="-87.95500722478752">
        <ele>-37.6</ele>
        <time>2023-01-29T23:41:29.000Z</time>
      </trkpt>
      <trkpt lat="15.845824200555398" lon="-87.95542125865622">
        <ele>-37.9</ele>
        <time>2023-01-29T23:41:55.000Z</time>
      </trkpt>
      <trkpt lat="15.845817242285436" lon="-87.95567330620855">
        <ele>-38.3</ele>
        <time>2023-01-29T23:42:13.000Z</time>
      </trkpt>
      <trkpt lat="15.845885572587138" lon="-87.95602389195363">
        <ele>-36.3</ele>
        <time>2023-01-29T23:43:03.000Z</time>
      </trkpt>
      <trkpt lat="15.84589959475309" lon="-87.95626423304958">
        <ele>-36.3</ele>
        <time>2023-01-29T23:43:23.000Z</time>
      </trkpt>
      <trkpt lat="15.845960067096126" lon="-87.95663026154351">
        <ele>-36.5</ele>
        <time>2023-01-29T23:43:47.000Z</time>
      </trkpt>
      <trkpt lat="15.846134293114458" lon="-87.95734416819204">
        <ele>-36.0</ele>
        <time>2023-01-29T23:44:25.000Z</time>
      </trkpt>
      <trkpt lat="15.846215645919704" lon="-87.95759605092006">
        <ele>-36.2</ele>
        <time>2023-01-29T23:44:36.000Z</time>
      </trkpt>
      <trkpt lat="15.846426742541881" lon="-87.95800101044738">
        <ele>-36.3</ele>
        <time>2023-01-29T23:44:56.000Z</time>
      </trkpt>
      <trkpt lat="15.846589431643634" lon="-87.95814630944683">
        <ele>-36.3</ele>
        <time>2023-01-29T23:45:05.000Z</time>
      </trkpt>
      <trkpt lat="15.846829101001747" lon="-87.9582658072385">
        <ele>-36.3</ele>
        <time>2023-01-29T23:45:15.000Z</time>
      </trkpt>
      <trkpt lat="15.847010040149025" lon="-87.95827359704809">
        <ele>-36.1</ele>
        <time>2023-01-29T23:45:22.000Z</time>
      </trkpt>
      <trkpt lat="15.848183598414085" lon="-87.95801541890322">
        <ele>-36.0</ele>
        <time>2023-01-29T23:46:13.000Z</time>
      </trkpt>
      <trkpt lat="15.848283311273285" lon="-87.95792808068417">
        <ele>-36.0</ele>
        <time>2023-01-29T23:46:19.000Z</time>
      </trkpt>
      <trkpt lat="15.848322708236491" lon="-87.957778839983">
        <ele>-36.3</ele>
        <time>2023-01-29T23:46:27.000Z</time>
      </trkpt>
      <trkpt lat="15.848248446567897" lon="-87.95703857884725">
        <ele>-36.4</ele>
        <time>2023-01-29T23:46:58.000Z</time>
      </trkpt>
      <trkpt lat="15.848125865450367" lon="-87.95622822329814">
        <ele>-36.5</ele>
        <time>2023-01-29T23:47:33.000Z</time>
      </trkpt>
      <trkpt lat="15.848142257005753" lon="-87.95613877031764">
        <ele>-36.6</ele>
        <time>2023-01-29T23:47:38.000Z</time>
      </trkpt>
      <trkpt lat="15.848196335089911" lon="-87.95608902631618">
        <ele>-36.6</ele>
        <time>2023-01-29T23:47:42.000Z</time>
      </trkpt>
      <trkpt lat="15.848341697813593" lon="-87.95604698598505">
        <ele>-36.3</ele>
        <time>2023-01-29T23:47:49.000Z</time>
      </trkpt>
      <trkpt lat="15.848838555709001" lon="-87.95600646489456">
        <ele>-36.6</ele>
        <time>2023-01-29T23:48:11.000Z</time>
      </trkpt>
      <trkpt lat="15.849447493772054" lon="-87.95584817066215">
        <ele>-35.9</ele>
        <time>2023-01-29T23:48:40.000Z</time>
      </trkpt>
      <trkpt lat="15.849804629652347" lon="-87.95600249689558">
        <ele>-36.0</ele>
        <time>2023-01-29T23:48:56.000Z</time>
      </trkpt>
      <trkpt lat="15.84996649986606" lon="-87.95601627525079">
        <ele>-36.0</ele>
        <time>2023-01-29T23:49:03.000Z</time>
      </trkpt>
      <trkpt lat="15.850552823999926" lon="-87.95571164689773">
        <ele>-36.0</ele>
        <time>2023-01-29T23:49:26.000Z</time>
      </trkpt>
      <trkpt lat="15.851101637000982" lon="-87.95549365418994">
        <ele>-36.4</ele>
        <time>2023-01-29T23:49:53.000Z</time>
      </trkpt>
      <trkpt lat="15.85160464764965" lon="-87.95540448343996">
        <ele>-36.2</ele>
        <time>2023-01-29T23:50:16.000Z</time>
      </trkpt>
      <trkpt lat="15.851916534705715" lon="-87.95540158866226">
        <ele>-36.0</ele>
        <time>2023-01-29T23:50:30.000Z</time>
      </trkpt>
      <trkpt lat="15.852766846510603" lon="-87.95517230621782">
        <ele>-35.9</ele>
        <time>2023-01-29T23:51:11.000Z</time>
      </trkpt>
      <trkpt lat="15.853216889268861" lon="-87.95511881370699">
        <ele>-35.5</ele>
        <time>2023-01-29T23:51:32.000Z</time>
      </trkpt>
      <trkpt lat="15.853668733595736" lon="-87.95500782962644">
        <ele>-36.0</ele>
        <time>2023-01-29T23:51:56.000Z</time>
      </trkpt>
      <trkpt lat="15.8541376746973" lon="-87.95495112594152">
        <ele>-35.6</ele>
        <time>2023-01-29T23:52:20.000Z</time>
      </trkpt>
      <trkpt lat="15.854222435672371" lon="-87.95489057601222">
        <ele>-35.6</ele>
        <time>2023-01-29T23:52:26.000Z</time>
      </trkpt>
      <trkpt lat="15.854200747128742" lon="-87.95411469751458">
        <ele>-36.0</ele>
        <time>2023-01-29T23:52:57.000Z</time>
      </trkpt>
      <trkpt lat="15.85392088627164" lon="-87.95264142512896">
        <ele>-35.9</ele>
        <time>2023-01-29T23:54:08.000Z</time>
      </trkpt>
      <trkpt lat="15.85382295476221" lon="-87.95231053205163">
        <ele>-36.0</ele>
        <time>2023-01-29T23:54:26.000Z</time>
      </trkpt>
      <trkpt lat="15.853739143475146" lon="-87.95158182569651">
        <ele>-36.0</ele>
        <time>2023-01-29T23:54:59.000Z</time>
      </trkpt>
      <trkpt lat="15.853632990466275" lon="-87.9511783777484">
        <ele>-36.2</ele>
        <time>2023-01-29T23:55:18.000Z</time>
      </trkpt>
      <trkpt lat="15.85365635000265" lon="-87.95058928053942">
        <ele>-36.5</ele>
        <time>2023-01-29T23:55:44.000Z</time>
      </trkpt>
      <trkpt lat="15.85344063785688" lon="-87.94995852265419">
        <ele>-36.4</ele>
        <time>2023-01-29T23:56:18.000Z</time>
      </trkpt>
      <trkpt lat="15.853325512860966" lon="-87.94950021007467">
        <ele>-36.4</ele>
        <time>2023-01-29T23:56:39.000Z</time>
      </trkpt>
      <trkpt lat="15.853202188178056" lon="-87.94856738710206">
        <ele>-36.5</ele>
        <time>2023-01-29T23:57:27.000Z</time>
      </trkpt>
      <trkpt lat="15.853071587537471" lon="-87.94798849451122">
        <ele>-36.6</ele>
        <time>2023-01-29T23:57:57.000Z</time>
      </trkpt>
      <trkpt lat="15.853073420728652" lon="-87.94789497059982">
        <ele>-36.6</ele>
        <time>2023-01-29T23:58:02.000Z</time>
      </trkpt>
      <trkpt lat="15.853108732961623" lon="-87.94784197347344">
        <ele>-36.4</ele>
        <time>2023-01-29T23:58:06.000Z</time>
      </trkpt>
      <trkpt lat="15.853796218202872" lon="-87.94772065458068">
        <ele>-36.6</ele>
        <time>2023-01-29T23:58:38.000Z</time>
      </trkpt>
      <trkpt lat="15.854666093646232" lon="-87.94760993774025">
        <ele>-36.6</ele>
        <time>2023-01-29T23:59:24.000Z</time>
      </trkpt>
      <trkpt lat="15.855479795588185" lon="-87.9474264373473">
        <ele>-36.7</ele>
        <time>2023-01-30T00:00:04.000Z</time>
      </trkpt>
      <trkpt lat="15.855820150675468" lon="-87.94741165534982">
        <ele>-36.4</ele>
        <time>2023-01-30T00:00:22.000Z</time>
      </trkpt>
      <trkpt lat="15.856067774579559" lon="-87.94726063340862">
        <ele>-36.6</ele>
        <time>2023-01-30T00:00:39.000Z</time>
      </trkpt>
      <trkpt lat="15.85665742371708" lon="-87.94720306718997">
        <ele>-36.6</ele>
        <time>2023-01-30T00:01:10.000Z</time>
      </trkpt>
      <trkpt lat="15.85734615337696" lon="-87.94703140251269">
        <ele>-36.4</ele>
        <time>2023-01-30T00:01:44.000Z</time>
      </trkpt>
      <trkpt lat="15.857768776197032" lon="-87.94699475490792">
        <ele>-36.7</ele>
        <time>2023-01-30T00:02:05.000Z</time>
      </trkpt>
      <trkpt lat="15.858483613487623" lon="-87.9468657048302">
        <ele>-36.7</ele>
        <time>2023-01-30T00:02:39.000Z</time>
      </trkpt>
      <trkpt lat="15.858959621423379" lon="-87.94673702821504">
        <ele>-36.7</ele>
        <time>2023-01-30T00:03:03.000Z</time>
      </trkpt>
      <trkpt lat="15.859877574371213" lon="-87.94656392946148">
        <ele>-36.9</ele>
        <time>2023-01-30T00:03:47.000Z</time>
      </trkpt>
      <trkpt lat="15.860383456394366" lon="-87.9465215074884">
        <ele>-36.9</ele>
        <time>2023-01-30T00:04:12.000Z</time>
      </trkpt>
      <trkpt lat="15.860773140777132" lon="-87.94638675273656">
        <ele>-36.8</ele>
        <time>2023-01-30T00:04:36.000Z</time>
      </trkpt>
      <trkpt lat="15.861019438902815" lon="-87.94639904548623">
        <ele>-36.7</ele>
        <time>2023-01-30T00:04:49.000Z</time>
      </trkpt>
      <trkpt lat="15.861921399343505" lon="-87.94623050337458">
        <ele>-36.7</ele>
        <time>2023-01-30T00:05:33.000Z</time>
      </trkpt>
      <trkpt lat="15.86218113772091" lon="-87.94615050567971">
        <ele>-37.1</ele>
        <time>2023-01-30T00:05:48.000Z</time>
      </trkpt>
      <trkpt lat="15.862259811081266" lon="-87.9460584069362">
        <ele>-37.1</ele>
        <time>2023-01-30T00:05:55.000Z</time>
      </trkpt>
      <trkpt lat="15.862162689122357" lon="-87.94513029659869">
        <ele>-37.2</ele>
        <time>2023-01-30T00:06:45.000Z</time>
      </trkpt>
      <trkpt lat="15.862207281630987" lon="-87.94502604693994">
        <ele>-37.1</ele>
        <time>2023-01-30T00:06:52.000Z</time>
      </trkpt>
      <trkpt lat="15.86308735935744" lon="-87.94491939144001">
        <ele>-37.4</ele>
        <time>2023-01-30T00:07:39.000Z</time>
      </trkpt>
      <trkpt lat="15.86330463950934" lon="-87.94485014310159">
        <ele>-37.4</ele>
        <time>2023-01-30T00:07:58.000Z</time>
      </trkpt>
      <trkpt lat="15.863716201626334" lon="-87.94477553502679">
        <ele>-37.9</ele>
        <time>2023-01-30T00:08:27.000Z</time>
      </trkpt>
      <trkpt lat="15.864687644120671" lon="-87.9446649911729">
        <ele>-37.6</ele>
        <time>2023-01-30T00:09:07.000Z</time>
      </trkpt>
      <trkpt lat="15.864791908311135" lon="-87.94462131707265">
        <ele>-37.6</ele>
        <time>2023-01-30T00:09:12.000Z</time>
      </trkpt>
      <trkpt lat="15.864855363705397" lon="-87.94454464449645">
        <ele>-37.9</ele>
        <time>2023-01-30T00:09:16.000Z</time>
      </trkpt>
      <trkpt lat="15.864893056010986" lon="-87.94442784488598">
        <ele>-37.9</ele>
        <time>2023-01-30T00:09:21.000Z</time>
      </trkpt>
      <trkpt lat="15.864929707195568" lon="-87.94386927060476">
        <ele>-37.6</ele>
        <time>2023-01-30T00:09:45.000Z</time>
      </trkpt>
      <trkpt lat="15.864917562144996" lon="-87.9430109026515">
        <ele>-37.9</ele>
        <time>2023-01-30T00:10:27.000Z</time>
      </trkpt>
      <trkpt lat="15.864954004667133" lon="-87.94285759984628">
        <ele>-38.1</ele>
        <time>2023-01-30T00:10:36.000Z</time>
      </trkpt>
      <trkpt lat="15.865047881352353" lon="-87.94266997550132">
        <ele>-38.3</ele>
        <time>2023-01-30T00:10:49.000Z</time>
      </trkpt>
      <trkpt lat="15.865105555950343" lon="-87.94235726755215">
        <ele>-38.0</ele>
        <time>2023-01-30T00:11:13.000Z</time>
      </trkpt>
      <trkpt lat="15.865182115644812" lon="-87.9418148708155">
        <ele>-38.3</ele>
        <time>2023-01-30T00:11:50.000Z</time>
      </trkpt>
      <trkpt lat="15.865174139560292" lon="-87.9416105100263">
        <ele>-38.1</ele>
        <time>2023-01-30T00:12:05.000Z</time>
      </trkpt>
      <trkpt lat="15.865257489897573" lon="-87.94106016450115">
        <ele>-38.5</ele>
        <time>2023-01-30T00:12:29.000Z</time>
      </trkpt>
      <trkpt lat="15.865255084154064" lon="-87.94068864085942">
        <ele>-38.9</ele>
        <time>2023-01-30T00:12:45.000Z</time>
      </trkpt>
      <trkpt lat="15.865173985677966" lon="-87.93989203333075">
        <ele>-38.4</ele>
        <time>2023-01-30T00:13:21.000Z</time>
      </trkpt>
      <trkpt lat="15.865059197529968" lon="-87.93924626486239">
        <ele>-38.9</ele>
        <time>2023-01-30T00:13:55.000Z</time>
      </trkpt>
      <trkpt lat="15.864914953316662" lon="-87.93800299933216">
        <ele>-38.2</ele>
        <time>2023-01-30T00:14:52.000Z</time>
      </trkpt>
      <trkpt lat="15.864813546955059" lon="-87.93738113355413">
        <ele>-38.2</ele>
        <time>2023-01-30T00:15:36.000Z</time>
      </trkpt>
      <trkpt lat="15.86469871677577" lon="-87.93626931068985">
        <ele>-39.2</ele>
        <time>2023-01-30T00:16:27.000Z</time>
      </trkpt>
      <trkpt lat="15.864666269716112" lon="-87.9361850859285">
        <ele>-39.2</ele>
        <time>2023-01-30T00:16:32.000Z</time>
      </trkpt>
      <trkpt lat="15.86460407794973" lon="-87.93612409546625">
        <ele>-39.2</ele>
        <time>2023-01-30T00:16:37.000Z</time>
      </trkpt>
      <trkpt lat="15.864320177706457" lon="-87.9360661419886">
        <ele>-38.4</ele>
        <time>2023-01-30T00:16:52.000Z</time>
      </trkpt>
      <trkpt lat="15.864233142958152" lon="-87.93597142258785">
        <ele>-38.5</ele>
        <time>2023-01-30T00:17:02.000Z</time>
      </trkpt>
      <trkpt lat="15.864051199566852" lon="-87.93443196335943">
        <ele>-38.9</ele>
        <time>2023-01-30T00:18:24.000Z</time>
      </trkpt>
      <trkpt lat="15.863950996276204" lon="-87.93390514333481">
        <ele>-38.9</ele>
        <time>2023-01-30T00:18:50.000Z</time>
      </trkpt>
      <trkpt lat="15.863944376646957" lon="-87.93369553900517">
        <ele>-38.8</ele>
        <time>2023-01-30T00:19:01.000Z</time>
      </trkpt>
      <trkpt lat="15.863737986383763" lon="-87.93267388047897">
        <ele>-38.6</ele>
        <time>2023-01-30T00:19:54.000Z</time>
      </trkpt>
      <trkpt lat="15.863658733798387" lon="-87.93194576434627">
        <ele>-38.7</ele>
        <time>2023-01-30T00:20:29.000Z</time>
      </trkpt>
      <trkpt lat="15.86356605470611" lon="-87.9314271414467">
        <ele>-38.8</ele>
        <time>2023-01-30T00:20:55.000Z</time>
      </trkpt>
      <trkpt lat="15.863366167739127" lon="-87.92989741916452">
        <ele>-38.7</ele>
        <time>2023-01-30T00:22:08.000Z</time>
      </trkpt>
      <trkpt lat="15.86328124640771" lon="-87.92954412876797">
        <ele>-38.9</ele>
        <time>2023-01-30T00:22:25.000Z</time>
      </trkpt>
      <trkpt lat="15.863180489041092" lon="-87.92886716851469">
        <ele>-39.0</ele>
        <time>2023-01-30T00:23:02.000Z</time>
      </trkpt>
      <trkpt lat="15.86313306928086" lon="-87.92874236720763">
        <ele>-39.0</ele>
        <time>2023-01-30T00:23:09.000Z</time>
      </trkpt>
      <trkpt lat="15.863022171417521" lon="-87.92868672470426">
        <ele>-39.2</ele>
        <time>2023-01-30T00:23:16.000Z</time>
      </trkpt>
      <trkpt lat="15.862657075587935" lon="-87.92871884662523">
        <ele>-39.3</ele>
        <time>2023-01-30T00:23:35.000Z</time>
      </trkpt>
      <trkpt lat="15.861961569752168" lon="-87.92888790681678">
        <ele>-36.0</ele>
        <time>2023-01-30T00:24:36.000Z</time>
      </trkpt>
      <trkpt lat="15.861700151418004" lon="-87.92890601669616">
        <ele>-35.9</ele>
        <time>2023-01-30T00:24:49.000Z</time>
      </trkpt>
      <trkpt lat="15.86011713892501" lon="-87.92918327635026">
        <ele>-36.1</ele>
        <time>2023-01-30T00:26:07.000Z</time>
      </trkpt>
      <trkpt lat="15.859684488305868" lon="-87.92930519774025">
        <ele>-36.3</ele>
        <time>2023-01-30T00:26:33.000Z</time>
      </trkpt>
      <trkpt lat="15.858553759358982" lon="-87.92942973962926">
        <ele>-36.4</ele>
        <time>2023-01-30T00:27:30.000Z</time>
      </trkpt>
      <trkpt lat="15.858345550391563" lon="-87.92950294779331">
        <ele>-36.3</ele>
        <time>2023-01-30T00:27:43.000Z</time>
      </trkpt>
      <trkpt lat="15.85806890641614" lon="-87.92951973394817">
        <ele>-36.4</ele>
        <time>2023-01-30T00:27:58.000Z</time>
      </trkpt>
      <trkpt lat="15.857586805596197" lon="-87.92968323269258">
        <ele>-36.4</ele>
        <time>2023-01-30T00:28:24.000Z</time>
      </trkpt>
      <trkpt lat="15.856723777278296" lon="-87.92988217378429">
        <ele>-36.7</ele>
        <time>2023-01-30T00:29:07.000Z</time>
      </trkpt>
      <trkpt lat="15.856162351491612" lon="-87.9299280913639">
        <ele>-36.6</ele>
        <time>2023-01-30T00:29:39.000Z</time>
      </trkpt>
      <trkpt lat="15.855868299509245" lon="-87.9299904719853">
        <ele>-36.5</ele>
        <time>2023-01-30T00:29:55.000Z</time>
      </trkpt>
      <trkpt lat="15.855402375771183" lon="-87.93003796855253">
        <ele>-36.7</ele>
        <time>2023-01-30T00:30:17.000Z</time>
      </trkpt>
      <trkpt lat="15.855149298456716" lon="-87.93014701913113">
        <ele>-36.6</ele>
        <time>2023-01-30T00:30:32.000Z</time>
      </trkpt>
      <trkpt lat="15.853894778566247" lon="-87.93039973626506">
        <ele>-36.9</ele>
        <time>2023-01-30T00:31:39.000Z</time>
      </trkpt>
      <trkpt lat="15.853588347510152" lon="-87.93043248049192">
        <ele>-36.9</ele>
        <time>2023-01-30T00:31:54.000Z</time>
      </trkpt>
      <trkpt lat="15.853377654766836" lon="-87.93049530418806">
        <ele>-37.0</ele>
        <time>2023-01-30T00:32:07.000Z</time>
      </trkpt>
      <trkpt lat="15.853119672141958" lon="-87.93051751387311">
        <ele>-37.0</ele>
        <time>2023-01-30T00:32:21.000Z</time>
      </trkpt>
      <trkpt lat="15.85263575216461" lon="-87.93064609232397">
        <ele>-37.3</ele>
        <time>2023-01-30T00:32:47.000Z</time>
      </trkpt>
      <trkpt lat="15.850764894612574" lon="-87.93091866404417">
        <ele>-37.4</ele>
        <time>2023-01-30T00:34:27.000Z</time>
      </trkpt>
      <trkpt lat="15.850115978170079" lon="-87.93111132693903">
        <ele>-37.4</ele>
        <time>2023-01-30T00:35:01.000Z</time>
      </trkpt>
      <trkpt lat="15.849700453956673" lon="-87.93115262692876">
        <ele>-37.5</ele>
        <time>2023-01-30T00:35:22.000Z</time>
      </trkpt>
      <trkpt lat="15.848730342967759" lon="-87.93132849355446">
        <ele>-37.4</ele>
        <time>2023-01-30T00:36:15.000Z</time>
      </trkpt>
      <trkpt lat="15.847188137478174" lon="-87.93168788780588">
        <ele>-37.4</ele>
        <time>2023-01-30T00:37:53.000Z</time>
      </trkpt>
      <trkpt lat="15.846525466296283" lon="-87.93177254258276">
        <ele>-37.4</ele>
        <time>2023-01-30T00:38:26.000Z</time>
      </trkpt>
      <trkpt lat="15.845933310570041" lon="-87.93191866539271">
        <ele>-37.6</ele>
        <time>2023-01-30T00:39:09.000Z</time>
      </trkpt>
      <trkpt lat="15.845806507748149" lon="-87.93192232256514">
        <ele>-36.0</ele>
        <time>2023-01-30T00:39:17.000Z</time>
      </trkpt>
      <trkpt lat="15.845684998378697" lon="-87.93199299355818">
        <ele>-36.0</ele>
        <time>2023-01-30T00:39:30.000Z</time>
      </trkpt>
      <trkpt lat="15.845251118344333" lon="-87.93201017650138">
        <ele>-36.0</ele>
        <time>2023-01-30T00:40:04.000Z</time>
      </trkpt>
      <trkpt lat="15.844567793465014" lon="-87.93220661419062">
        <ele>-36.2</ele>
        <time>2023-01-30T00:40:40.000Z</time>
      </trkpt>
      <trkpt lat="15.8440362965583" lon="-87.9322249839215">
        <ele>-35.6</ele>
        <time>2023-01-30T00:41:13.000Z</time>
      </trkpt>
      <trkpt lat="15.84333830206186" lon="-87.93234941297244">
        <ele>-35.5</ele>
        <time>2023-01-30T00:41:46.000Z</time>
      </trkpt>
      <trkpt lat="15.842925822128922" lon="-87.93237849767125">
        <ele>-35.7</ele>
        <time>2023-01-30T00:42:04.000Z</time>
      </trkpt>
      <trkpt lat="15.841987772199042" lon="-87.9325811354751">
        <ele>-35.8</ele>
        <time>2023-01-30T00:42:48.000Z</time>
      </trkpt>
      <trkpt lat="15.841938444297961" lon="-87.9326315991429">
        <ele>-36.0</ele>
        <time>2023-01-30T00:42:52.000Z</time>
      </trkpt>
      <trkpt lat="15.841926568367159" lon="-87.93268997303416">
        <ele>-36.0</ele>
        <time>2023-01-30T00:42:55.000Z</time>
      </trkpt>
      <trkpt lat="15.841976898843967" lon="-87.93293698732919">
        <ele>-35.8</ele>
        <time>2023-01-30T00:43:06.000Z</time>
      </trkpt>
      <trkpt lat="15.84199934893081" lon="-87.93349426698093">
        <ele>-36.1</ele>
        <time>2023-01-30T00:43:43.000Z</time>
      </trkpt>
      <trkpt lat="15.842114253113056" lon="-87.93406573252913">
        <ele>-36.0</ele>
        <time>2023-01-30T00:44:14.000Z</time>
      </trkpt>
      <trkpt lat="15.842157953900992" lon="-87.93453274747372">
        <ele>-36.0</ele>
        <time>2023-01-30T00:44:34.000Z</time>
      </trkpt>
      <trkpt lat="15.842223147318945" lon="-87.93466958573488">
        <ele>-36.0</ele>
        <time>2023-01-30T00:44:41.000Z</time>
      </trkpt>
      <trkpt lat="15.842336363476806" lon="-87.93470836107093">
        <ele>-36.0</ele>
        <time>2023-01-30T00:44:47.000Z</time>
      </trkpt>
      <trkpt lat="15.842849262434457" lon="-87.93469147358208">
        <ele>-35.8</ele>
        <time>2023-01-30T00:45:12.000Z</time>
      </trkpt>
      <trkpt lat="15.843666323804381" lon="-87.93446629997135">
        <ele>-36.1</ele>
        <time>2023-01-30T00:46:09.000Z</time>
      </trkpt>
      <trkpt lat="15.843866592638578" lon="-87.93449976650037">
        <ele>-36.0</ele>
        <time>2023-01-30T00:46:24.000Z</time>
      </trkpt>
      <trkpt lat="15.844116276822849" lon="-87.93448584427108">
        <ele>-36.1</ele>
        <time>2023-01-30T00:46:42.000Z</time>
      </trkpt>
      <trkpt lat="15.844194745454969" lon="-87.93453879380353">
        <ele>-36.1</ele>
        <time>2023-01-30T00:46:51.000Z</time>
      </trkpt>
      <trkpt lat="15.844393276066292" lon="-87.93601967606459">
        <ele>-35.5</ele>
        <time>2023-01-30T00:48:13.000Z</time>
      </trkpt>
      <trkpt lat="15.84454766804714" lon="-87.93639211115227">
        <ele>-35.8</ele>
        <time>2023-01-30T00:48:33.000Z</time>
      </trkpt>
      <trkpt lat="15.844629598683014" lon="-87.93717874760145">
        <ele>-35.7</ele>
        <time>2023-01-30T00:49:12.000Z</time>
      </trkpt>
      <trkpt lat="15.844697576026471" lon="-87.9374356195712">
        <ele>-35.7</ele>
        <time>2023-01-30T00:49:24.000Z</time>
      </trkpt>
      <trkpt lat="15.84471211207972" lon="-87.93769704693172">
        <ele>-35.8</ele>
        <time>2023-01-30T00:49:36.000Z</time>
      </trkpt>
      <trkpt lat="15.84503143065615" lon="-87.93955383321536">
        <ele>-36.1</ele>
        <time>2023-01-30T00:51:16.000Z</time>
      </trkpt>
      <trkpt lat="15.845069593572708" lon="-87.93963565029495">
        <ele>-36.1</ele>
        <time>2023-01-30T00:51:24.000Z</time>
      </trkpt>
      <trkpt lat="15.845035746393973" lon="-87.93968284138654">
        <ele>-36.1</ele>
        <time>2023-01-30T00:51:26.000Z</time>
      </trkpt>
      <trkpt lat="15.845062177074658" lon="-87.93976629116882">
        <ele>-36.1</ele>
        <time>2023-01-30T00:51:33.000Z</time>
      </trkpt>
    </trkseg>
  </trk>
</gpx>
